sensor_id;sensor_type;location;lat;lon;timestamp;pressure;altitude;pressure_sealevel;temperature;humidity
45345;BME280;31078;48.304;11.896;2023-06-26T00:01:56;96333.09;;;18.54;62.63
45345;BME280;31078;48.304;11.896;2023-06-26T00:04:23;96325.94;;;18.49;62.81
45345;BME280;31078;48.304;11.896;2023-06-26T00:06:49;96330.22;;;18.46;63.61
45345;BME280;31078;48.304;11.896;2023-06-26T00:09:16;96326.59;;;18.42;64.24
45345;BME280;31078;48.304;11.896;2023-06-26T00:11:44;96330.13;;;18.39;64.68
45345;BME280;31078;48.304;11.896;2023-06-26T00:14:10;96322.22;;;18.38;65.05
45345;BME280;31078;48.304;11.896;2023-06-26T00:16:37;96330.03;;;18.36;64.73
45345;BME280;31078;48.304;11.896;2023-06-26T00:19:03;96329.97;;;18.32;64.04
45345;BME280;31078;48.304;11.896;2023-06-26T00:21:30;96333.50;;;18.29;64.02
45345;BME280;31078;48.304;11.896;2023-06-26T00:23:56;96334.22;;;18.26;64.45
45345;BME280;31078;48.304;11.896;2023-06-26T00:26:23;96337.28;;;18.21;64.80
45345;BME280;31078;48.304;11.896;2023-06-26T00:28:51;96331.66;;;18.14;65.77
45345;BME280;31078;48.304;11.896;2023-06-26T00:31:18;96330.41;;;18.11;65.61
45345;BME280;31078;48.304;11.896;2023-06-26T00:33:44;96334.72;;;18.09;65.72
45345;BME280;31078;48.304;11.896;2023-06-26T00:36:11;96335.44;;;18.06;65.59
45345;BME280;31078;48.304;11.896;2023-06-26T00:38:37;96329.88;;;18.02;65.24
45345;BME280;31078;48.304;11.896;2023-06-26T00:41:04;96330.22;;;18.00;65.44
45345;BME280;31078;48.304;11.896;2023-06-26T00:43:37;96330.59;;;17.99;65.48
45345;BME280;31078;48.304;11.896;2023-06-26T00:46:05;96321.44;;;17.91;65.55
45345;BME280;31078;48.304;11.896;2023-06-26T00:48:34;96328.38;;;17.85;65.87
45345;BME280;31078;48.304;11.896;2023-06-26T00:51:01;96340.94;;;17.83;66.17
45345;BME280;31078;48.304;11.896;2023-06-26T00:53:28;96341.31;;;17.81;67.35
45345;BME280;31078;48.304;11.896;2023-06-26T00:55:55;96340.00;;;17.75;67.67
45345;BME280;31078;48.304;11.896;2023-06-26T00:58:23;96339.56;;;17.73;67.71
45345;BME280;31078;48.304;11.896;2023-06-26T01:00:50;96338.66;;;17.69;68.26
45345;BME280;31078;48.304;11.896;2023-06-26T01:03:18;96335.06;;;17.65;68.34
45345;BME280;31078;48.304;11.896;2023-06-26T01:05:46;96340.56;;;17.65;68.58
45345;BME280;31078;48.304;11.896;2023-06-26T01:08:15;96337.38;;;17.63;68.31
45345;BME280;31078;48.304;11.896;2023-06-26T01:10:42;96336.94;;;17.61;68.39
45345;BME280;31078;48.304;11.896;2023-06-26T01:13:08;96338.13;;;17.60;69.18
45345;BME280;31078;48.304;11.896;2023-06-26T01:15:35;96337.66;;;17.58;69.31
45345;BME280;31078;48.304;11.896;2023-06-26T01:18:02;96334.03;;;17.54;68.73
45345;BME280;31078;48.304;11.896;2023-06-26T01:20:31;96334.78;;;17.51;68.96
45345;BME280;31078;48.304;11.896;2023-06-26T01:23:05;96331.53;;;17.45;69.43
45345;BME280;31078;48.304;11.896;2023-06-26T01:25:37;96337.31;;;17.40;68.92
45345;BME280;31078;48.304;11.896;2023-06-26T01:28:07;96340.72;;;17.33;69.10
45345;BME280;31078;48.304;11.896;2023-06-26T01:30:34;96333.19;;;17.30;69.33
45345;BME280;31078;48.304;11.896;2023-06-26T01:33:03;96331.59;;;17.29;69.32
45345;BME280;31078;48.304;11.896;2023-06-26T01:35:30;96339.84;;;17.29;70.16
45345;BME280;31078;48.304;11.896;2023-06-26T01:38:11;96336.22;;;17.25;70.42
45345;BME280;31078;48.304;11.896;2023-06-26T01:40:38;96337.03;;;17.26;71.23
45345;BME280;31078;48.304;11.896;2023-06-26T01:43:08;96337.41;;;17.24;70.73
45345;BME280;31078;48.304;11.896;2023-06-26T01:45:38;96336.50;;;17.20;70.58
45345;BME280;31078;48.304;11.896;2023-06-26T01:48:06;96335.72;;;17.19;70.94
45345;BME280;31078;48.304;11.896;2023-06-26T01:50:35;96330.13;;;17.16;70.83
45345;BME280;31078;48.304;11.896;2023-06-26T01:53:07;96330.94;;;17.16;70.98
45345;BME280;31078;48.304;11.896;2023-06-26T01:55:42;96332.00;;;17.12;70.27
45345;BME280;31078;48.304;11.896;2023-06-26T01:58:12;96330.69;;;17.06;70.64
45345;BME280;31078;48.304;11.896;2023-06-26T02:00:39;96333.91;;;17.08;71.55
45345;BME280;31078;48.304;11.896;2023-06-26T02:03:06;96332.94;;;17.00;71.36
45345;BME280;31078;48.304;11.896;2023-06-26T02:05:33;96334.91;;;17.00;71.11
45345;BME280;31078;48.304;11.896;2023-06-26T02:07:59;96343.56;;;17.02;71.56
45345;BME280;31078;48.304;11.896;2023-06-26T02:10:26;96338.44;;;17.00;71.29
45345;BME280;31078;48.304;11.896;2023-06-26T02:12:53;96342.44;;;17.03;71.45
45345;BME280;31078;48.304;11.896;2023-06-26T02:15:21;96342.00;;;17.01;71.66
45345;BME280;31078;48.304;11.896;2023-06-26T02:17:47;96337.72;;;17.03;71.62
45345;BME280;31078;48.304;11.896;2023-06-26T02:20:14;96338.53;;;17.04;71.22
45345;BME280;31078;48.304;11.896;2023-06-26T02:22:41;96336.06;;;16.99;71.42
45345;BME280;31078;48.304;11.896;2023-06-26T02:25:08;96338.22;;;16.89;71.34
45345;BME280;31078;48.304;11.896;2023-06-26T02:27:35;96335.53;;;16.93;71.51
45345;BME280;31078;48.304;11.896;2023-06-26T02:30:01;96335.81;;;16.88;71.44
45345;BME280;31078;48.304;11.896;2023-06-26T02:32:29;96338.66;;;16.60;72.40
45345;BME280;31078;48.304;11.896;2023-06-26T02:34:56;96339.06;;;16.42;73.11
45345;BME280;31078;48.304;11.896;2023-06-26T02:37:22;96342.78;;;16.50;72.60
45345;BME280;31078;48.304;11.896;2023-06-26T02:39:49;96344.66;;;16.46;71.94
45345;BME280;31078;48.304;11.896;2023-06-26T02:42:15;96342.69;;;16.47;71.90
45345;BME280;31078;48.304;11.896;2023-06-26T02:44:42;96336.31;;;16.27;72.12
45345;BME280;31078;48.304;11.896;2023-06-26T02:47:08;96339.06;;;16.11;73.06
45345;BME280;31078;48.304;11.896;2023-06-26T02:49:36;96340.06;;;16.03;73.40
45345;BME280;31078;48.304;11.896;2023-06-26T02:52:03;96334.88;;;15.85;73.55
45345;BME280;31078;48.304;11.896;2023-06-26T02:54:29;96342.22;;;15.97;72.76
45345;BME280;31078;48.304;11.896;2023-06-26T02:56:56;96340.75;;;16.00;72.63
45345;BME280;31078;48.304;11.896;2023-06-26T02:59:22;96340.41;;;16.17;72.40
45345;BME280;31078;48.304;11.896;2023-06-26T03:01:49;96336.78;;;16.29;72.16
45345;BME280;31078;48.304;11.896;2023-06-26T03:04:15;96343.59;;;16.35;71.62
45345;BME280;31078;48.304;11.896;2023-06-26T03:06:44;96341.44;;;16.28;70.50
45345;BME280;31078;48.304;11.896;2023-06-26T03:09:10;96339.16;;;16.30;70.61
45345;BME280;31078;48.304;11.896;2023-06-26T03:11:37;96341.44;;;16.28;70.62
45345;BME280;31078;48.304;11.896;2023-06-26T03:14:03;96335.78;;;16.21;70.82
45345;BME280;31078;48.304;11.896;2023-06-26T03:16:30;96338.63;;;16.09;71.25
45345;BME280;31078;48.304;11.896;2023-06-26T03:18:56;96327.44;;;16.02;71.25
45345;BME280;31078;48.304;11.896;2023-06-26T03:21:23;96334.72;;;16.10;71.17
45345;BME280;31078;48.304;11.896;2023-06-26T03:23:51;96340.56;;;15.93;71.44
45345;BME280;31078;48.304;11.896;2023-06-26T03:26:17;96335.69;;;15.58;72.74
45345;BME280;31078;48.304;11.896;2023-06-26T03:28:44;96333.09;;;15.49;73.88
45345;BME280;31078;48.304;11.896;2023-06-26T03:31:10;96332.34;;;15.36;73.78
45345;BME280;31078;48.304;11.896;2023-06-26T03:33:37;96336.09;;;15.44;73.92
45345;BME280;31078;48.304;11.896;2023-06-26T03:36:04;96328.13;;;15.67;72.77
45345;BME280;31078;48.304;11.896;2023-06-26T03:38:31;96341.97;;;15.58;72.12
45345;BME280;31078;48.304;11.896;2023-06-26T03:40:59;96334.16;;;15.60;72.26
45345;BME280;31078;48.304;11.896;2023-06-26T03:43:26;96333.63;;;15.67;72.34
45345;BME280;31078;48.304;11.896;2023-06-26T03:45:52;96332.56;;;15.72;72.04
45345;BME280;31078;48.304;11.896;2023-06-26T03:48:19;96339.34;;;15.62;71.50
45345;BME280;31078;48.304;11.896;2023-06-26T03:50:45;96340.03;;;15.59;71.48
45345;BME280;31078;48.304;11.896;2023-06-26T03:53:12;96336.09;;;15.72;71.70
45345;BME280;31078;48.304;11.896;2023-06-26T03:55:38;96331.69;;;15.83;71.98
45345;BME280;31078;48.304;11.896;2023-06-26T03:58:06;96343.94;;;16.02;71.78
45345;BME280;31078;48.304;11.896;2023-06-26T04:00:33;96335.94;;;15.97;70.12
45345;BME280;31078;48.304;11.896;2023-06-26T04:02:59;96343.50;;;16.00;69.74
45345;BME280;31078;48.304;11.896;2023-06-26T04:05:26;96341.66;;;16.04;70.25
45345;BME280;31078;48.304;11.896;2023-06-26T04:07:53;96336.84;;;16.16;71.49
45345;BME280;31078;48.304;11.896;2023-06-26T04:10:20;96334.38;;;16.27;71.24
45345;BME280;31078;48.304;11.896;2023-06-26T04:12:46;96333.81;;;16.37;71.25
45345;BME280;31078;48.304;11.896;2023-06-26T04:15:14;96338.63;;;16.40;69.83
45345;BME280;31078;48.304;11.896;2023-06-26T04:17:41;96339.53;;;16.44;69.14
45345;BME280;31078;48.304;11.896;2023-06-26T04:20:08;96339.06;;;16.42;69.54
45345;BME280;31078;48.304;11.896;2023-06-26T04:22:35;96338.34;;;16.46;68.82
45345;BME280;31078;48.304;11.896;2023-06-26T04:25:02;96342.78;;;16.50;69.11
45345;BME280;31078;48.304;11.896;2023-06-26T04:27:29;96345.97;;;16.52;68.75
45345;BME280;31078;48.304;11.896;2023-06-26T04:29:56;96339.03;;;16.58;69.11
45345;BME280;31078;48.304;11.896;2023-06-26T04:32:24;96341.16;;;16.65;69.06
45345;BME280;31078;48.304;11.896;2023-06-26T04:34:50;96347.66;;;16.73;68.99
45345;BME280;31078;48.304;11.896;2023-06-26T04:37:17;96342.69;;;16.78;69.34
45345;BME280;31078;48.304;11.896;2023-06-26T04:39:44;96337.69;;;16.84;68.40
45345;BME280;31078;48.304;11.896;2023-06-26T04:42:10;96339.78;;;16.90;67.48
45345;BME280;31078;48.304;11.896;2023-06-26T04:44:37;96342.28;;;16.95;65.75
45345;BME280;31078;48.304;11.896;2023-06-26T04:47:06;96329.47;;;17.03;64.45
45345;BME280;31078;48.304;11.896;2023-06-26T04:49:34;96335.59;;;17.12;64.28
45345;BME280;31078;48.304;11.896;2023-06-26T04:52:00;96334.97;;;17.22;65.08
45345;BME280;31078;48.304;11.896;2023-06-26T04:54:28;96337.81;;;17.26;65.31
45345;BME280;31078;48.304;11.896;2023-06-26T04:56:54;96340.00;;;17.36;64.52
45345;BME280;31078;48.304;11.896;2023-06-26T04:59:21;96344.50;;;17.44;64.28
45345;BME280;31078;48.304;11.896;2023-06-26T05:01:48;96346.50;;;17.47;63.73
45345;BME280;31078;48.304;11.896;2023-06-26T05:04:15;96340.72;;;17.53;62.89
45345;BME280;31078;48.304;11.896;2023-06-26T05:06:43;96345.63;;;17.43;60.75
45345;BME280;31078;48.304;11.896;2023-06-26T05:09:09;96353.59;;;17.48;60.76
45345;BME280;31078;48.304;11.896;2023-06-26T05:11:36;96345.94;;;17.58;60.62
45345;BME280;31078;48.304;11.896;2023-06-26T05:14:03;96344.53;;;17.67;60.50
45345;BME280;31078;48.304;11.896;2023-06-26T05:16:32;96347.97;;;17.61;59.77
45345;BME280;31078;48.304;11.896;2023-06-26T05:18:59;96347.72;;;17.69;59.69
45345;BME280;31078;48.304;11.896;2023-06-26T05:21:25;96343.91;;;17.74;59.60
45345;BME280;31078;48.304;11.896;2023-06-26T05:23:55;96342.16;;;17.66;59.31
45345;BME280;31078;48.304;11.896;2023-06-26T05:26:23;96339.47;;;17.69;59.70
45345;BME280;31078;48.304;11.896;2023-06-26T05:28:50;96342.31;;;17.73;59.40
45345;BME280;31078;48.304;11.896;2023-06-26T05:31:17;96337.38;;;17.82;58.95
45345;BME280;31078;48.304;11.896;2023-06-26T05:33:44;96343.38;;;17.88;58.52
45345;BME280;31078;48.304;11.896;2023-06-26T05:36:12;96339.47;;;17.89;58.11
45345;BME280;31078;48.304;11.896;2023-06-26T05:38:39;96331.66;;;18.14;58.42
45345;BME280;31078;48.304;11.896;2023-06-26T05:41:08;96334.59;;;18.24;58.78
45345;BME280;31078;48.304;11.896;2023-06-26T05:43:34;96336.78;;;18.15;58.35
45345;BME280;31078;48.304;11.896;2023-06-26T05:46:01;96345.06;;;18.38;58.16
45345;BME280;31078;48.304;11.896;2023-06-26T05:48:27;96324.47;;;18.32;57.98
45345;BME280;31078;48.304;11.896;2023-06-26T05:50:54;96337.28;;;18.44;57.52
45345;BME280;31078;48.304;11.896;2023-06-26T05:53:21;96335.41;;;18.51;57.86
45345;BME280;31078;48.304;11.896;2023-06-26T05:55:48;96332.34;;;18.57;57.87
45345;BME280;31078;48.304;11.896;2023-06-26T05:58:17;96338.53;;;18.73;57.81
45345;BME280;31078;48.304;11.896;2023-06-26T06:00:45;96334.81;;;18.88;57.47
45345;BME280;31078;48.304;11.896;2023-06-26T06:03:12;96338.81;;;18.91;57.51
45345;BME280;31078;48.304;11.896;2023-06-26T06:05:38;96334.28;;;19.06;57.86
45345;BME280;31078;48.304;11.896;2023-06-26T06:08:05;96335.88;;;19.07;57.68
45345;BME280;31078;48.304;11.896;2023-06-26T06:10:31;96328.88;;;19.13;57.11
45345;BME280;31078;48.304;11.896;2023-06-26T06:12:58;96327.41;;;19.22;57.14
45345;BME280;31078;48.304;11.896;2023-06-26T06:15:25;96330.72;;;19.35;56.86
45345;BME280;31078;48.304;11.896;2023-06-26T06:17:52;96332.50;;;19.50;56.38
45345;BME280;31078;48.304;11.896;2023-06-26T06:20:19;96334.88;;;19.52;55.83
45345;BME280;31078;48.304;11.896;2023-06-26T06:22:46;96328.81;;;19.69;55.90
45345;BME280;31078;48.304;11.896;2023-06-26T06:25:13;96325.72;;;19.78;56.03
45345;BME280;31078;48.304;11.896;2023-06-26T06:27:40;96333.03;;;19.97;56.02
45345;BME280;31078;48.304;11.896;2023-06-26T06:30:08;96329.09;;;19.98;56.00
45345;BME280;31078;48.304;11.896;2023-06-26T06:32:36;96334.00;;;20.15;56.09
45345;BME280;31078;48.304;11.896;2023-06-26T06:35:03;96327.34;;;20.23;56.86
45345;BME280;31078;48.304;11.896;2023-06-26T06:37:34;96329.72;;;20.25;56.09
45345;BME280;31078;48.304;11.896;2023-06-26T06:40:01;96329.50;;;20.44;55.82
45345;BME280;31078;48.304;11.896;2023-06-26T06:42:28;96325.66;;;20.52;56.48
45345;BME280;31078;48.304;11.896;2023-06-26T06:44:55;96323.78;;;20.64;56.70
45345;BME280;31078;48.304;11.896;2023-06-26T06:47:21;96321.84;;;20.68;55.94
45345;BME280;31078;48.304;11.896;2023-06-26T06:49:49;96321.97;;;20.89;56.14
45345;BME280;31078;48.304;11.896;2023-06-26T06:52:15;96327.59;;;21.07;56.37
45345;BME280;31078;48.304;11.896;2023-06-26T06:54:52;96328.47;;;21.18;53.63
45345;BME280;31078;48.304;11.896;2023-06-26T06:57:19;96332.44;;;21.21;51.79
45345;BME280;31078;48.304;11.896;2023-06-26T06:59:45;96338.50;;;21.41;52.40
45345;BME280;31078;48.304;11.896;2023-06-26T07:02:12;96330.63;;;21.53;53.13
45345;BME280;31078;48.304;11.896;2023-06-26T07:04:39;96338.13;;;21.49;52.74
45345;BME280;31078;48.304;11.896;2023-06-26T07:07:06;96333.81;;;21.59;51.54
45345;BME280;31078;48.304;11.896;2023-06-26T07:09:33;96338.19;;;21.63;51.70
45345;BME280;31078;48.304;11.896;2023-06-26T07:12:00;96334.28;;;21.75;51.75
45345;BME280;31078;48.304;11.896;2023-06-26T07:14:27;96341.44;;;21.87;51.66
45345;BME280;31078;48.304;11.896;2023-06-26T07:16:54;96337.88;;;21.90;50.97
45345;BME280;31078;48.304;11.896;2023-06-26T07:19:20;96342.25;;;21.95;50.55
45345;BME280;31078;48.304;11.896;2023-06-26T07:21:47;96343.06;;;22.02;50.65
45345;BME280;31078;48.304;11.896;2023-06-26T07:24:15;96335.97;;;22.08;51.24
45345;BME280;31078;48.304;11.896;2023-06-26T07:26:41;96336.00;;;22.26;51.47
45345;BME280;31078;48.304;11.896;2023-06-26T07:29:08;96332.84;;;22.35;52.57
45345;BME280;31078;48.304;11.896;2023-06-26T07:31:34;96324.91;;;22.40;49.80
45345;BME280;31078;48.304;11.896;2023-06-26T07:34:01;96324.53;;;22.53;51.85
45345;BME280;31078;48.304;11.896;2023-06-26T07:36:27;96328.88;;;22.57;49.92
45345;BME280;31078;48.304;11.896;2023-06-26T07:38:53;96330.44;;;22.65;50.65
45345;BME280;31078;48.304;11.896;2023-06-26T07:41:21;96330.06;;;22.74;49.23
45345;BME280;31078;48.304;11.896;2023-06-26T07:43:48;96331.25;;;22.91;50.25
45345;BME280;31078;48.304;11.896;2023-06-26T07:46:14;96325.69;;;22.95;49.40
45345;BME280;31078;48.304;11.896;2023-06-26T07:48:41;96331.22;;;23.05;49.35
45345;BME280;31078;48.304;11.896;2023-06-26T07:51:07;96331.63;;;23.11;49.46
45345;BME280;31078;48.304;11.896;2023-06-26T07:53:34;96326.78;;;23.33;49.63
45345;BME280;31078;48.304;11.896;2023-06-26T07:56:00;96327.91;;;23.57;49.73
45345;BME280;31078;48.304;11.896;2023-06-26T07:58:28;96328.69;;;23.57;48.77
45345;BME280;31078;48.304;11.896;2023-06-26T08:00:54;96321.13;;;23.68;47.74
45345;BME280;31078;48.304;11.896;2023-06-26T08:03:21;96323.78;;;23.90;48.67
45345;BME280;31078;48.304;11.896;2023-06-26T08:05:48;96326.22;;;23.84;45.50
45345;BME280;31078;48.304;11.896;2023-06-26T08:08:15;96323.00;;;23.93;46.12
45345;BME280;31078;48.304;11.896;2023-06-26T08:10:41;96327.66;;;24.10;47.15
45345;BME280;31078;48.304;11.896;2023-06-26T08:13:08;96325.19;;;24.23;46.57
45345;BME280;31078;48.304;11.896;2023-06-26T08:15:36;96337.03;;;24.38;46.17
45345;BME280;31078;48.304;11.896;2023-06-26T08:18:03;96328.97;;;24.54;46.24
45345;BME280;31078;48.304;11.896;2023-06-26T08:20:29;96319.41;;;24.55;45.21
45345;BME280;31078;48.304;11.896;2023-06-26T08:22:56;96320.81;;;24.78;47.46
45345;BME280;31078;48.304;11.896;2023-06-26T08:25:22;96313.38;;;25.05;46.76
45345;BME280;31078;48.304;11.896;2023-06-26T08:27:49;96311.59;;;25.25;45.20
45345;BME280;31078;48.304;11.896;2023-06-26T08:30:17;96318.69;;;25.34;44.20
45345;BME280;31078;48.304;11.896;2023-06-26T08:32:45;96316.19;;;25.43;44.07
45345;BME280;31078;48.304;11.896;2023-06-26T08:35:12;96315.94;;;25.64;43.81
45345;BME280;31078;48.304;11.896;2023-06-26T08:37:38;96313.53;;;25.63;40.50
45345;BME280;31078;48.304;11.896;2023-06-26T08:40:06;96314.19;;;25.77;42.17
45345;BME280;31078;48.304;11.896;2023-06-26T08:42:33;96304.94;;;25.84;42.45
45345;BME280;31078;48.304;11.896;2023-06-26T08:45:00;96310.63;;;26.04;40.92
45345;BME280;31078;48.304;11.896;2023-06-26T08:47:26;96309.47;;;26.28;42.13
45345;BME280;31078;48.304;11.896;2023-06-26T08:50:00;96302.28;;;26.31;40.08
45345;BME280;31078;48.304;11.896;2023-06-26T08:52:30;96310.75;;;26.51;38.79
45345;BME280;31078;48.304;11.896;2023-06-26T08:54:58;96308.44;;;26.46;37.79
45345;BME280;31078;48.304;11.896;2023-06-26T08:57:26;96313.66;;;26.67;41.26
45345;BME280;31078;48.304;11.896;2023-06-26T08:59:53;96308.31;;;26.76;38.02
45345;BME280;31078;48.304;11.896;2023-06-26T09:02:20;96302.06;;;26.92;37.79
45345;BME280;31078;48.304;11.896;2023-06-26T09:04:47;96304.78;;;26.96;37.65
45345;BME280;31078;48.304;11.896;2023-06-26T09:07:15;96308.31;;;27.00;39.38
45345;BME280;31078;48.304;11.896;2023-06-26T09:09:42;96305.03;;;27.05;39.43
45345;BME280;31078;48.304;11.896;2023-06-26T09:12:09;96298.13;;;27.13;40.55
45345;BME280;31078;48.304;11.896;2023-06-26T09:14:36;96297.28;;;27.36;40.11
45345;BME280;31078;48.304;11.896;2023-06-26T09:17:03;96295.78;;;27.51;39.46
45345;BME280;31078;48.304;11.896;2023-06-26T09:19:30;96294.41;;;27.60;38.38
45345;BME280;31078;48.304;11.896;2023-06-26T09:21:56;96291.41;;;27.70;37.72
45345;BME280;31078;48.304;11.896;2023-06-26T09:24:24;96291.03;;;27.68;39.22
45345;BME280;31078;48.304;11.896;2023-06-26T09:26:51;96296.63;;;27.88;38.30
45345;BME280;31078;48.304;11.896;2023-06-26T09:29:17;96294.34;;;27.83;38.44
45345;BME280;31078;48.304;11.896;2023-06-26T09:31:45;96283.94;;;27.83;37.20
45345;BME280;31078;48.304;11.896;2023-06-26T09:34:12;96286.66;;;27.87;38.26
45345;BME280;31078;48.304;11.896;2023-06-26T09:36:38;96282.19;;;27.90;38.64
45345;BME280;31078;48.304;11.896;2023-06-26T09:39:08;96290.44;;;27.97;38.73
45345;BME280;31078;48.304;11.896;2023-06-26T09:41:37;96274.03;;;28.15;38.96
45345;BME280;31078;48.304;11.896;2023-06-26T09:44:06;96283.41;;;28.25;37.73
45345;BME280;31078;48.304;11.896;2023-06-26T09:46:33;96283.19;;;28.36;38.45
45345;BME280;31078;48.304;11.896;2023-06-26T09:49:05;96284.84;;;28.49;37.08
45345;BME280;31078;48.304;11.896;2023-06-26T09:51:32;96272.13;;;28.45;38.56
45345;BME280;31078;48.304;11.896;2023-06-26T09:53:59;96271.28;;;28.48;36.19
45345;BME280;31078;48.304;11.896;2023-06-26T09:56:27;96269.19;;;28.52;36.27
45345;BME280;31078;48.304;11.896;2023-06-26T09:58:56;96274.78;;;28.52;35.08
45345;BME280;31078;48.304;11.896;2023-06-26T10:01:23;96265.84;;;28.57;37.60
45345;BME280;31078;48.304;11.896;2023-06-26T10:03:50;96262.78;;;28.68;38.06
45345;BME280;31078;48.304;11.896;2023-06-26T10:06:19;96258.72;;;28.85;35.54
45345;BME280;31078;48.304;11.896;2023-06-26T10:08:48;96256.34;;;29.00;36.17
45345;BME280;31078;48.304;11.896;2023-06-26T10:11:16;96248.81;;;28.97;35.09
45345;BME280;31078;48.304;11.896;2023-06-26T10:13:47;96245.47;;;29.02;36.85
45345;BME280;31078;48.304;11.896;2023-06-26T10:16:20;96254.94;;;29.08;34.24
45345;BME280;31078;48.304;11.896;2023-06-26T10:18:51;96246.16;;;29.06;35.61
45345;BME280;31078;48.304;11.896;2023-06-26T10:21:20;96247.03;;;29.19;35.56
45345;BME280;31078;48.304;11.896;2023-06-26T10:23:49;96250.31;;;29.30;34.53
45345;BME280;31078;48.304;11.896;2023-06-26T10:26:18;96246.25;;;29.31;32.64
45345;BME280;31078;48.304;11.896;2023-06-26T10:28:47;96257.97;;;29.43;32.93
45345;BME280;31078;48.304;11.896;2023-06-26T10:31:19;96246.84;;;29.39;33.74
45345;BME280;31078;48.304;11.896;2023-06-26T10:33:47;96251.66;;;29.55;33.40
45345;BME280;31078;48.304;11.896;2023-06-26T10:36:15;96244.97;;;29.49;32.58
45345;BME280;31078;48.304;11.896;2023-06-26T10:38:48;96254.78;;;29.70;32.87
45345;BME280;31078;48.304;11.896;2023-06-26T10:41:20;96248.19;;;29.76;32.77
45345;BME280;31078;48.304;11.896;2023-06-26T10:43:49;96243.78;;;29.75;31.79
45345;BME280;31078;48.304;11.896;2023-06-26T10:46:19;96237.84;;;29.73;33.25
45345;BME280;31078;48.304;11.896;2023-06-26T10:48:56;96239.00;;;29.88;33.52
45345;BME280;31078;48.304;11.896;2023-06-26T10:51:24;96228.31;;;29.96;32.84
45345;BME280;31078;48.304;11.896;2023-06-26T10:53:54;96244.50;;;30.05;31.81
45345;BME280;31078;48.304;11.896;2023-06-26T10:56:20;96241.00;;;30.01;31.09
45345;BME280;31078;48.304;11.896;2023-06-26T10:58:48;96237.09;;;29.98;32.92
45345;BME280;31078;48.304;11.896;2023-06-26T11:01:25;96225.19;;;29.94;33.44
45345;BME280;31078;48.304;11.896;2023-06-26T11:04:04;96229.22;;;30.06;32.46
45345;BME280;31078;48.304;11.896;2023-06-26T11:06:32;96228.22;;;30.00;32.45
45345;BME280;31078;48.304;11.896;2023-06-26T11:09:01;96217.91;;;29.97;31.58
45345;BME280;31078;48.304;11.896;2023-06-26T11:11:54;96212.94;;;30.01;32.25
45345;BME280;31078;48.304;11.896;2023-06-26T11:14:24;96214.41;;;29.93;33.24
45345;BME280;31078;48.304;11.896;2023-06-26T11:16:55;96208.69;;;30.09;34.05
45345;BME280;31078;48.304;11.896;2023-06-26T11:19:22;96212.63;;;30.24;31.37
45345;BME280;31078;48.304;11.896;2023-06-26T11:21:49;96217.44;;;30.36;32.33
45345;BME280;31078;48.304;11.896;2023-06-26T11:24:16;96221.84;;;30.25;33.68
45345;BME280;31078;48.304;11.896;2023-06-26T11:26:43;96216.91;;;30.29;32.40
45345;BME280;31078;48.304;11.896;2023-06-26T11:29:11;96206.75;;;30.44;32.18
45345;BME280;31078;48.304;11.896;2023-06-26T11:31:38;96206.09;;;30.40;32.90
45345;BME280;31078;48.304;11.896;2023-06-26T11:34:08;96216.53;;;30.39;30.99
45345;BME280;31078;48.304;11.896;2023-06-26T11:36:36;96205.63;;;30.41;31.98
45345;BME280;31078;48.304;11.896;2023-06-26T11:39:04;96212.59;;;30.50;31.46
45345;BME280;31078;48.304;11.896;2023-06-26T11:41:32;96216.59;;;30.61;32.55
45345;BME280;31078;48.304;11.896;2023-06-26T11:44:00;96207.28;;;30.52;33.15
45345;BME280;31078;48.304;11.896;2023-06-26T11:46:27;96204.22;;;30.59;31.30
45345;BME280;31078;48.304;11.896;2023-06-26T11:48:54;96206.97;;;30.50;32.25
45345;BME280;31078;48.304;11.896;2023-06-26T11:51:22;96212.00;;;30.55;32.45
45345;BME280;31078;48.304;11.896;2023-06-26T11:53:49;96198.75;;;30.42;31.82
45345;BME280;31078;48.304;11.896;2023-06-26T11:56:17;96200.78;;;30.55;31.54
45345;BME280;31078;48.304;11.896;2023-06-26T11:58:57;96194.81;;;30.53;30.69
45345;BME280;31078;48.304;11.896;2023-06-26T12:01:26;96186.50;;;30.49;32.86
45345;BME280;31078;48.304;11.896;2023-06-26T12:03:58;96185.13;;;30.54;32.84
45345;BME280;31078;48.304;11.896;2023-06-26T12:06:27;96188.69;;;30.67;31.74
45345;BME280;31078;48.304;11.896;2023-06-26T12:08:53;96188.81;;;30.63;30.46
45345;BME280;31078;48.304;11.896;2023-06-26T12:11:21;96191.31;;;30.49;31.02
45345;BME280;31078;48.304;11.896;2023-06-26T12:13:49;96183.25;;;30.51;30.54
45345;BME280;31078;48.304;11.896;2023-06-26T12:16:16;96186.88;;;30.38;31.10
45345;BME280;31078;48.304;11.896;2023-06-26T12:18:42;96175.19;;;30.27;32.24
45345;BME280;31078;48.304;11.896;2023-06-26T12:21:29;96181.91;;;30.42;32.14
45345;BME280;31078;48.304;11.896;2023-06-26T12:23:59;96185.16;;;30.41;30.99
45345;BME280;31078;48.304;11.896;2023-06-26T12:26:26;96182.31;;;30.54;31.00
45345;BME280;31078;48.304;11.896;2023-06-26T12:28:53;96179.06;;;30.55;31.53
45345;BME280;31078;48.304;11.896;2023-06-26T12:31:21;96176.22;;;30.68;31.73
45345;BME280;31078;48.304;11.896;2023-06-26T12:33:48;96174.31;;;30.65;32.55
45345;BME280;31078;48.304;11.896;2023-06-26T12:36:14;96172.25;;;30.44;33.00
45345;BME280;31078;48.304;11.896;2023-06-26T12:38:45;96170.81;;;30.39;31.83
45345;BME280;31078;48.304;11.896;2023-06-26T12:41:12;96165.97;;;30.39;33.69
45345;BME280;31078;48.304;11.896;2023-06-26T12:43:40;96169.22;;;30.38;32.02
45345;BME280;31078;48.304;11.896;2023-06-26T12:46:06;96180.50;;;30.25;31.96
45345;BME280;31078;48.304;11.896;2023-06-26T12:48:37;96176.22;;;30.33;31.65
45345;BME280;31078;48.304;11.896;2023-06-26T12:51:08;96170.25;;;30.31;31.99
45345;BME280;31078;48.304;11.896;2023-06-26T12:53:35;96166.44;;;30.25;32.99